createdAt,value
2018-11-01T00:00:14.918Z,70.67
2018-11-01T00:01:20.430Z,71.53
2018-11-01T00:02:25.946Z,71.34
2018-11-01T00:03:31.453Z,71.44
2018-11-01T00:04:36.964Z,71.82
2018-11-01T00:05:42.480Z,71.72
2018-11-01T00:06:47.989Z,70.67
2018-11-01T00:07:53.502Z,70.39
2018-11-01T00:08:59.017Z,70.87
2018-11-01T00:10:04.531Z,71.44
2018-11-01T00:11:10.030Z,71.44
2018-11-01T00:12:15.548Z,71.06
2018-11-01T00:13:21.057Z,71.82
2018-11-01T00:14:26.570Z,71.82
2018-11-01T00:15:32.085Z,72.20
2018-11-01T00:16:37.599Z,71.53
2018-11-01T00:17:43.114Z,72.11
2018-11-01T00:18:48.620Z,71.63
2018-11-01T00:19:54.134Z,71.82
2018-11-01T00:20:59.648Z,72.20
2018-11-01T00:22:05.164Z,72.20
2018-11-01T00:23:10.666Z,71.82
2018-11-01T00:24:16.182Z,72.11
2018-11-01T00:25:21.697Z,72.01
2018-11-01T00:26:27.205Z,71.53
2018-11-01T00:27:32.720Z,71.06
2018-11-01T00:28:38.227Z,71.06
2018-11-01T00:29:43.741Z,70.96
2018-11-01T00:30:49.260Z,71.15
2018-11-01T00:31:54.763Z,71.25
2018-11-01T00:33:00.271Z,71.34
2018-11-01T00:34:05.787Z,71.25
2018-11-01T00:35:11.301Z,71.34
2018-11-01T00:36:16.811Z,71.53
2018-11-01T00:37:22.331Z,71.63
2018-11-01T00:38:27.833Z,70.96
2018-11-01T00:39:33.353Z,70.67
2018-11-01T00:40:38.859Z,70.87
2018-11-01T00:41:44.378Z,70.96
2018-11-01T00:42:49.887Z,70.39
2018-11-01T00:43:55.392Z,69.91
2018-11-01T00:45:00.914Z,70.20
2018-11-01T00:46:06.406Z,70.10
2018-11-01T00:47:11.932Z,69.72
2018-11-01T00:48:17.520Z,70.48
2018-11-01T00:49:22.949Z,70.87
2018-11-01T00:50:28.486Z,71.06
2018-11-01T00:51:33.975Z,70.96
2018-11-01T00:52:39.488Z,70.67
2018-11-01T00:53:44.999Z,70.39
2018-11-01T00:54:50.507Z,71.44
2018-11-01T00:55:56.027Z,70.64
2018-11-01T00:57:01.532Z,70.16
2018-11-01T00:58:07.045Z,69.87
2018-11-01T00:59:12.553Z,69.82
2018-11-01T01:00:18.071Z,70.07
2018-11-01T01:01:23.581Z,69.87
2018-11-01T01:02:29.089Z,69.82
2018-11-01T01:03:34.603Z,69.82
2018-11-01T01:04:40.125Z,69.62
2018-11-01T01:05:45.630Z,69.59
2018-11-01T01:06:51.138Z,69.43
2018-11-01T01:07:56.653Z,69.34
2018-11-01T01:09:02.162Z,69.34
2018-11-01T01:10:07.680Z,68.96
2018-11-01T01:11:13.200Z,69.05
2018-11-01T01:12:18.697Z,69.05
2018-11-01T01:13:24.207Z,68.76
2018-11-01T01:14:29.729Z,68.57
2018-11-01T01:15:35.228Z,68.76
2018-11-01T01:16:40.746Z,68.48
2018-11-01T01:17:46.256Z,69.05
2018-11-01T01:18:51.838Z,68.76
2018-11-01T01:19:57.277Z,68.67
2018-11-01T01:21:02.786Z,68.96
2018-11-01T01:22:08.304Z,68.96
2018-11-01T01:23:13.813Z,68.96
2018-11-01T01:24:19.326Z,69.34
2018-11-01T01:25:24.833Z,68.86
2018-11-01T01:26:30.349Z,69.05
2018-11-01T01:27:35.860Z,69.05
2018-11-01T01:28:41.374Z,68.86
2018-11-01T01:29:46.884Z,69.15
2018-11-01T01:30:52.405Z,69.43
2018-11-01T01:31:57.914Z,68.96
2018-11-01T01:33:03.417Z,69.62
2018-11-01T01:34:08.934Z,69.53
2018-11-01T01:35:14.443Z,69.05
2018-11-01T01:36:19.953Z,69.82
2018-11-01T01:37:25.468Z,69.91
2018-11-01T01:38:30.978Z,69.91
2018-11-01T01:39:36.486Z,70.10
2018-11-01T01:40:42.000Z,70.20
2018-11-01T01:41:47.512Z,70.20
2018-11-01T01:42:53.025Z,70.29
2018-11-01T01:43:58.538Z,70.39
2018-11-01T01:45:04.046Z,70.39
2018-11-01T01:46:09.557Z,70.96
2018-11-01T01:47:15.070Z,71.06
2018-11-01T01:48:20.593Z,70.67
2018-11-01T01:49:26.094Z,70.58
2018-11-01T01:50:31.631Z,70.48
2018-11-01T01:51:37.126Z,71.06
2018-11-01T01:52:42.636Z,71.69
2018-11-01T01:53:48.142Z,72.30
2018-11-01T01:54:53.655Z,72.55
2018-11-01T01:55:59.163Z,72.64
2018-11-01T01:57:04.673Z,72.83
2018-11-01T01:58:10.190Z,72.45
2018-11-01T01:59:15.702Z,73.32
2018-11-01T02:00:21.224Z,73.12
2018-11-01T02:01:26.722Z,73.69
2018-11-01T02:02:32.239Z,73.50
2018-11-01T02:03:37.746Z,73.69
2018-11-01T02:04:43.255Z,73.41
2018-11-01T02:05:48.778Z,74.17
2018-11-01T02:06:54.282Z,74.27
2018-11-01T02:07:59.799Z,74.37
2018-11-01T02:09:05.299Z,74.37
2018-11-01T02:10:10.814Z,74.46
2018-11-01T02:11:16.327Z,74.93
2018-11-01T02:12:21.850Z,74.84
2018-11-01T02:13:27.347Z,75.22
2018-11-01T02:14:32.863Z,75.42
2018-11-01T02:15:38.375Z,75.28
2018-11-01T02:16:43.885Z,75.47
2018-11-01T02:17:49.407Z,75.47
2018-11-01T02:18:54.915Z,75.47
2018-11-01T02:20:00.421Z,75.47
2018-11-01T02:21:05.931Z,75.47
2018-11-01T02:22:11.446Z,75.85
2018-11-01T02:23:16.960Z,75.57
2018-11-01T02:24:22.462Z,75.47
2018-11-01T02:25:27.973Z,75.09
2018-11-01T02:26:33.490Z,76.23
2018-11-01T02:27:38.997Z,75.85
2018-11-01T02:28:44.511Z,75.85
2018-11-01T02:29:50.024Z,75.76
2018-11-01T02:30:55.533Z,75.76
2018-11-01T02:32:01.046Z,75.95
2018-11-01T02:33:06.587Z,76.23
2018-11-01T02:34:12.063Z,76.52
2018-11-01T02:35:17.581Z,76.52
2018-11-01T02:36:23.086Z,76.23
2018-11-01T02:37:28.602Z,76.14
2018-11-01T02:38:34.239Z,76.52
2018-11-01T02:39:39.625Z,77.28
2018-11-01T02:40:45.134Z,77.09
2018-11-01T02:41:50.645Z,77.19
2018-11-01T02:42:56.156Z,77.15
2018-11-01T02:44:01.669Z,76.81
2018-11-01T02:45:07.176Z,77.38
2018-11-01T02:46:12.692Z,77.25
2018-11-01T02:47:18.209Z,77.34
2018-11-01T02:48:23.719Z,77.53
2018-11-01T02:49:29.223Z,77.44
2018-11-01T02:50:34.734Z,77.53
2018-11-01T02:51:40.252Z,77.06
2018-11-01T02:52:45.757Z,76.57
2018-11-01T02:53:51.273Z,76.01
2018-11-01T02:54:56.780Z,76.01
2018-11-01T02:56:02.286Z,77.25
2018-11-01T02:57:07.800Z,77.15
2018-11-01T02:58:13.333Z,77.25
2018-11-01T02:59:18.820Z,77.25
2018-11-01T03:00:24.332Z,77.25
2018-11-01T03:01:29.847Z,77.44
2018-11-01T03:02:35.350Z,77.62
2018-11-01T03:03:40.868Z,77.25
2018-11-01T03:04:46.373Z,77.34
2018-11-01T03:05:51.887Z,77.25
2018-11-01T03:06:57.399Z,77.82
2018-11-01T03:08:02.914Z,77.72
2018-11-01T03:09:08.418Z,77.59
2018-11-01T03:10:13.940Z,77.78
2018-11-01T03:11:19.442Z,77.59
2018-11-01T03:12:24.957Z,77.97
2018-11-01T03:13:30.480Z,77.87
2018-11-01T03:14:35.975Z,78.16
2018-11-01T03:15:41.483Z,79.02
2018-11-01T03:16:47.007Z,79.02
2018-11-01T03:17:52.514Z,79.68
2018-11-01T03:18:58.019Z,79.11
2018-11-01T03:20:03.531Z,79.78
2018-11-01T03:21:09.039Z,80.07
2018-11-01T03:22:14.549Z,79.68
2018-11-01T03:23:20.059Z,80.35
2018-11-01T03:24:25.573Z,80.26
2018-11-01T03:25:31.083Z,80.26
2018-11-01T03:26:36.652Z,80.07
2018-11-01T03:27:42.102Z,80.22
2018-11-01T03:28:47.614Z,80.60
2018-11-01T03:29:53.125Z,80.31
2018-11-01T03:30:58.631Z,80.79
2018-11-01T03:32:04.142Z,80.50
2018-11-01T03:33:09.659Z,80.50
2018-11-01T03:34:15.180Z,80.60
2018-11-01T03:35:20.675Z,80.60
2018-11-01T03:36:26.185Z,80.02
2018-11-01T03:37:31.696Z,80.31
2018-11-01T03:38:37.234Z,80.60
2018-11-01T03:39:42.712Z,80.12
2018-11-01T03:40:48.230Z,80.79
2018-11-01T03:41:53.740Z,80.22
2018-11-01T03:42:59.246Z,80.50
2018-11-01T03:44:04.752Z,80.69
2018-11-01T03:45:10.264Z,80.69
2018-11-01T03:46:15.776Z,80.69
2018-11-01T03:47:21.288Z,80.31
2018-11-01T03:48:26.797Z,80.60
2018-11-01T03:49:32.305Z,80.41
2018-11-01T03:50:37.817Z,80.50
2018-11-01T03:51:43.363Z,80.41
2018-11-01T03:52:48.839Z,80.31
2018-11-01T03:53:54.367Z,80.02
2018-11-01T03:54:59.862Z,80.98
2018-11-01T03:56:05.373Z,80.50
2018-11-01T03:57:10.889Z,80.94
2018-11-01T03:58:16.391Z,81.32
2018-11-01T03:59:21.901Z,81.32
2018-11-01T04:00:27.415Z,80.94
2018-11-01T04:01:32.932Z,81.98
2018-11-01T04:02:38.434Z,81.89
2018-11-01T04:03:44.016Z,81.79
2018-11-01T04:04:49.450Z,81.41
2018-11-01T04:05:54.962Z,82.37
2018-11-01T04:07:00.475Z,82.18
2018-11-01T04:08:05.977Z,81.98
2018-11-01T04:09:11.491Z,81.89
2018-11-01T04:10:16.999Z,81.70
2018-11-01T04:11:22.506Z,81.32
2018-11-01T04:12:28.021Z,81.89
2018-11-01T04:13:33.595Z,81.51
2018-11-01T04:14:39.037Z,82.18
2018-11-01T04:15:44.554Z,81.89
2018-11-01T04:16:50.078Z,81.89
2018-11-01T04:17:55.569Z,81.89
2018-11-01T04:19:01.079Z,81.89
2018-11-01T04:20:06.602Z,81.41
2018-11-01T04:21:12.099Z,81.41
2018-11-01T04:22:17.609Z,81.41
2018-11-01T04:23:23.220Z,81.23
2018-11-01T04:24:28.628Z,81.89
2018-11-01T04:25:34.154Z,81.98
2018-11-01T04:26:39.643Z,82.08
2018-11-01T04:27:45.163Z,82.18
2018-11-01T04:28:50.668Z,81.98
2018-11-01T04:29:56.174Z,81.79
2018-11-01T04:31:01.684Z,81.76
2018-11-01T04:32:07.197Z,81.95
2018-11-01T04:33:12.730Z,81.89
2018-11-01T04:34:18.214Z,82.18
2018-11-01T04:35:23.734Z,82.46
2018-11-01T04:36:29.235Z,82.32
2018-11-01T04:37:34.744Z,82.61
2018-11-01T04:38:40.253Z,82.56
2018-11-01T04:39:45.768Z,82.61
2018-11-01T04:40:51.273Z,82.56
2018-11-01T04:41:56.819Z,82.80
2018-11-01T04:43:02.302Z,83.03
2018-11-01T04:44:07.832Z,82.70
2018-11-01T04:45:13.320Z,83.22
2018-11-01T04:46:18.829Z,82.80
2018-11-01T04:47:24.348Z,82.80
2018-11-01T04:48:29.837Z,82.70
2018-11-01T04:49:35.347Z,82.90
2018-11-01T04:50:40.856Z,82.99
2018-11-01T04:51:46.371Z,82.70
2018-11-01T04:52:51.876Z,83.18
2018-11-01T04:53:57.395Z,82.99
2018-11-01T04:55:02.905Z,82.99
2018-11-01T04:56:08.417Z,82.80
2018-11-01T04:57:13.917Z,83.28
2018-11-01T04:58:19.427Z,82.99
2018-11-01T04:59:24.938Z,83.56
2018-11-01T05:00:30.445Z,83.09
2018-11-01T05:01:35.960Z,83.47
2018-11-01T05:02:41.462Z,83.65
2018-11-01T05:03:46.987Z,83.47
2018-11-01T05:04:52.496Z,83.56
2018-11-01T05:05:57.993Z,83.75
2018-11-01T05:07:03.506Z,83.47
2018-11-01T05:08:09.017Z,83.85
2018-11-01T05:09:14.526Z,84.04
2018-11-01T05:10:20.033Z,83.65
2018-11-01T05:11:25.538Z,83.56
2018-11-01T05:12:31.052Z,83.37
2018-11-01T05:13:36.563Z,83.37
2018-11-01T05:14:42.073Z,83.56
2018-11-01T05:15:47.580Z,83.56
2018-11-01T05:16:53.087Z,83.75
2018-11-01T05:17:58.599Z,83.52
2018-11-01T05:19:04.112Z,83.47
2018-11-01T05:20:09.633Z,83.81
2018-11-01T05:21:15.127Z,83.90
2018-11-01T05:22:20.632Z,83.71
2018-11-01T05:23:26.147Z,83.90
2018-11-01T05:24:31.656Z,83.71
2018-11-01T05:25:37.199Z,83.62
2018-11-01T05:26:42.670Z,83.71
2018-11-01T05:27:48.182Z,84.19
2018-11-01T05:28:53.695Z,84.09
2018-11-01T05:29:59.201Z,83.90
2018-11-01T05:31:04.711Z,84.00
2018-11-01T05:32:10.219Z,84.09
2018-11-01T05:33:15.725Z,83.90
2018-11-01T05:34:21.253Z,84.00
2018-11-01T05:35:26.756Z,83.90
2018-11-01T05:36:32.257Z,84.00
2018-11-01T05:37:37.764Z,83.90
2018-11-01T05:38:43.273Z,84.47
2018-11-01T05:39:48.781Z,84.09
2018-11-01T05:40:54.294Z,84.38
2018-11-01T05:41:59.811Z,84.19
2018-11-01T05:43:05.319Z,83.90
2018-11-01T05:44:10.820Z,83.71
2018-11-01T05:45:16.328Z,84.00
2018-11-01T05:46:21.833Z,83.42
2018-11-01T05:47:27.346Z,84.00
2018-11-01T05:48:32.855Z,83.71
2018-11-01T05:49:38.362Z,83.81
2018-11-01T05:50:43.872Z,84.00
2018-11-01T05:51:49.382Z,84.00
2018-11-01T05:52:54.890Z,84.09
2018-11-01T05:54:00.397Z,83.71
2018-11-01T05:55:05.912Z,83.52
2018-11-01T05:56:11.420Z,83.71
2018-11-01T05:57:16.929Z,84.00
2018-11-01T05:58:22.436Z,83.76
2018-11-01T05:59:27.942Z,84.05
2018-11-01T06:00:33.455Z,84.05
2018-11-01T06:01:38.971Z,84.33
2018-11-01T06:02:44.473Z,84.52
2018-11-01T06:03:49.985Z,84.52
2018-11-01T06:04:55.491Z,84.72
2018-11-01T06:06:00.997Z,84.33
2018-11-01T06:07:06.509Z,84.24
2018-11-01T06:08:12.013Z,84.05
2018-11-01T06:09:17.524Z,83.95
2018-11-01T06:10:23.037Z,84.05
2018-11-01T06:11:28.544Z,83.86
2018-11-01T06:12:34.091Z,84.33
2018-11-01T06:13:39.563Z,84.24
2018-11-01T06:14:45.070Z,84.05
2018-11-01T06:15:50.580Z,84.33
2018-11-01T06:16:56.088Z,84.33
2018-11-01T06:18:01.597Z,84.52
2018-11-01T06:19:07.110Z,84.43
2018-11-01T06:20:12.611Z,85.28
2018-11-01T06:21:18.122Z,85.19
2018-11-01T06:22:23.629Z,85.76
2018-11-01T06:23:29.141Z,85.86
2018-11-01T06:24:34.648Z,86.33
2018-11-01T06:25:40.162Z,85.95
2018-11-01T06:26:45.669Z,86.71
2018-11-01T06:27:51.174Z,85.95
2018-11-01T06:28:56.688Z,86.57
2018-11-01T06:30:02.198Z,85.71
2018-11-01T06:31:07.699Z,85.90
2018-11-01T06:32:13.211Z,85.90
2018-11-01T06:33:18.721Z,85.99
2018-11-01T06:34:24.228Z,85.42
2018-11-01T06:35:29.746Z,85.52
2018-11-01T06:36:35.251Z,85.04
2018-11-01T06:37:40.756Z,85.14
2018-11-01T06:38:46.259Z,84.56
2018-11-01T06:39:51.769Z,84.38
2018-11-01T06:40:57.292Z,84.66
2018-11-01T06:42:02.791Z,84.99
2018-11-01T06:43:08.300Z,84.70
2018-11-01T06:44:13.851Z,83.94
2018-11-01T06:45:19.313Z,84.23
2018-11-01T06:46:24.827Z,83.65
2018-11-01T06:47:30.337Z,83.65
2018-11-01T06:48:35.845Z,83.75
2018-11-01T06:49:41.353Z,83.56
2018-11-01T06:50:46.867Z,83.85
2018-11-01T06:51:52.373Z,83.94
2018-11-01T06:52:57.879Z,84.04
2018-11-01T06:54:03.395Z,83.75
2018-11-01T06:55:08.901Z,83.47
2018-11-01T06:56:14.404Z,83.70
2018-11-01T06:57:19.918Z,83.98
2018-11-01T06:58:25.515Z,83.80
2018-11-01T06:59:31.015Z,83.61
2018-11-01T07:00:36.443Z,83.70
2018-11-01T07:01:41.953Z,83.98
2018-11-01T07:02:47.462Z,83.80
2018-11-01T07:03:52.976Z,83.70
2018-11-01T07:04:58.483Z,83.22
2018-11-01T07:06:03.999Z,83.61
2018-11-01T07:07:09.495Z,83.32
2018-11-01T07:08:15.014Z,83.03
2018-11-01T07:09:20.522Z,82.65
2018-11-01T07:10:26.028Z,82.84
2018-11-01T07:11:31.639Z,82.84
2018-11-01T07:12:37.051Z,83.13
2018-11-01T07:13:42.559Z,82.93
2018-11-01T07:14:48.069Z,82.93
2018-11-01T07:15:53.578Z,83.07
2018-11-01T07:16:59.095Z,82.98
2018-11-01T07:18:04.603Z,82.60
2018-11-01T07:19:10.115Z,82.69
2018-11-01T07:20:15.619Z,82.41
2018-11-01T07:21:21.126Z,82.21
2018-11-01T07:22:26.645Z,81.84
2018-11-01T07:23:32.154Z,81.74
2018-11-01T07:24:37.657Z,81.74
2018-11-01T07:25:43.206Z,82.31
2018-11-01T07:26:48.679Z,82.21
2018-11-01T07:27:54.186Z,81.74
2018-11-01T07:28:59.696Z,81.07
2018-11-01T07:30:05.209Z,80.79
2018-11-01T07:31:10.714Z,80.22
2018-11-01T07:32:16.222Z,80.60
2018-11-01T07:33:21.736Z,80.60
2018-11-01T07:34:27.253Z,80.98
2018-11-01T07:35:32.762Z,81.46
2018-11-01T07:36:38.265Z,81.30
2018-11-01T07:37:43.793Z,80.92
2018-11-01T07:38:49.292Z,81.21
2018-11-01T07:39:54.818Z,80.73
2018-11-01T07:41:00.306Z,80.26
2018-11-01T07:42:05.821Z,80.73
2018-11-01T07:43:11.335Z,80.35
2018-11-01T07:44:16.839Z,80.44
2018-11-01T07:45:22.349Z,81.12
2018-11-01T07:46:27.876Z,80.73
2018-11-01T07:47:33.369Z,81.02
2018-11-01T07:48:38.955Z,80.44
2018-11-01T07:49:44.404Z,80.83
2018-11-01T07:50:49.899Z,81.21
2018-11-01T07:51:55.404Z,81.78
2018-11-01T07:53:00.930Z,81.88
2018-11-01T07:54:06.447Z,81.15
2018-11-01T07:55:11.937Z,80.30
2018-11-01T07:56:17.450Z,80.58
2018-11-01T07:57:22.967Z,80.39
2018-11-01T07:58:28.490Z,80.49
2018-11-01T07:59:33.983Z,80.39
2018-11-01T08:00:39.492Z,80.49
2018-11-01T08:01:45.003Z,80.39
2018-11-01T08:02:50.511Z,80.58
2018-11-01T08:03:56.021Z,81.06
2018-11-01T08:05:01.566Z,81.54
2018-11-01T08:06:07.096Z,81.54
2018-11-01T08:07:12.551Z,81.06
2018-11-01T08:08:18.065Z,81.25
2018-11-01T08:09:23.576Z,81.44
2018-11-01T08:10:29.083Z,81.73
2018-11-01T08:11:34.603Z,81.54
2018-11-01T08:12:40.117Z,81.15
2018-11-01T08:13:45.622Z,81.54
2018-11-01T08:14:51.136Z,81.15
2018-11-01T08:15:56.642Z,81.35
2018-11-01T08:17:02.150Z,81.54
2018-11-01T08:18:07.665Z,81.35
2018-11-01T08:19:13.176Z,81.25
2018-11-01T08:20:18.918Z,81.35
2018-11-01T08:21:24.195Z,81.44
2018-11-01T08:22:29.703Z,81.92
2018-11-01T08:23:35.215Z,82.20
2018-11-01T08:24:40.727Z,81.73
2018-11-01T08:25:46.235Z,82.20
2018-11-01T08:26:51.747Z,82.20
2018-11-01T08:27:57.296Z,82.40
2018-11-01T08:29:02.765Z,82.34
2018-11-01T08:30:08.282Z,82.43
2018-11-01T08:31:13.797Z,81.86
2018-11-01T08:32:19.313Z,81.48
2018-11-01T08:33:24.809Z,81.77
2018-11-01T08:34:30.323Z,82.06
2018-11-01T08:35:35.839Z,82.34
2018-11-01T08:36:41.349Z,82.53
2018-11-01T08:37:46.854Z,82.63
2018-11-01T08:38:52.360Z,81.86
2018-11-01T08:39:57.875Z,81.96
2018-11-01T08:41:03.397Z,81.96
2018-11-01T08:42:08.897Z,81.48
2018-11-01T08:43:14.407Z,81.29
2018-11-01T08:44:19.919Z,81.58
2018-11-01T08:45:25.437Z,80.72
2018-11-01T08:46:30.948Z,80.53
2018-11-01T08:47:36.457Z,80.91
2018-11-01T08:48:41.965Z,80.33
2018-11-01T08:49:47.475Z,81.10
2018-11-01T08:50:52.986Z,81.38
2018-11-01T08:51:58.496Z,81.01
2018-11-01T08:53:04.010Z,80.76
2018-11-01T08:54:09.519Z,80.76
2018-11-01T08:55:15.032Z,80.28
2018-11-01T08:56:20.552Z,80.95
2018-11-01T08:57:26.054Z,81.14
2018-11-01T08:58:31.565Z,81.81
2018-11-01T08:59:37.076Z,81.81
2018-11-01T09:00:42.590Z,82.38
2018-11-01T09:01:48.106Z,82.29
2018-11-01T09:02:53.614Z,82.38
2018-11-01T09:03:59.125Z,82.09
2018-11-01T09:05:04.631Z,82.38
2018-11-01T09:06:10.155Z,81.71
2018-11-01T09:07:15.697Z,81.81
2018-11-01T09:08:21.166Z,82.19
2018-11-01T09:09:26.680Z,81.62
2018-11-01T09:10:32.254Z,82.19
2018-11-01T09:11:37.698Z,81.90
2018-11-01T09:12:43.271Z,81.43
2018-11-01T09:13:48.720Z,82.19
2018-11-01T09:14:54.248Z,82.19
2018-11-01T09:15:59.751Z,81.33
2018-11-01T09:17:05.259Z,80.95
2018-11-01T09:18:10.775Z,80.57
2018-11-01T09:19:16.339Z,80.66
2018-11-01T09:20:21.802Z,80.19
2018-11-01T09:21:27.311Z,80.09
2018-11-01T09:22:32.814Z,80.41
2018-11-01T09:23:38.335Z,80.28
2018-11-01T09:24:43.836Z,80.09
2018-11-01T09:25:49.350Z,79.80
2018-11-01T09:26:54.945Z,79.61
2018-11-01T09:28:00.372Z,80.04
2018-11-01T09:29:05.917Z,79.80
2018-11-01T09:30:11.397Z,79.27
2018-11-01T09:31:16.908Z,79.27
2018-11-01T09:32:22.422Z,79.46
2018-11-01T09:33:27.936Z,79.08
2018-11-01T09:34:33.440Z,78.60
2018-11-01T09:35:39.029Z,78.56
2018-11-01T09:36:44.461Z,78.66
2018-11-01T09:37:49.974Z,78.75
2018-11-01T09:38:55.492Z,79.43
2018-11-01T09:40:00.994Z,79.52
2018-11-01T09:41:06.509Z,79.52
2018-11-01T09:42:12.027Z,79.36
2018-11-01T09:43:17.540Z,80.09
2018-11-01T09:44:23.043Z,80.04
2018-11-01T09:45:28.557Z,80.22
2018-11-01T09:46:34.243Z,79.36
2018-11-01T09:47:39.955Z,79.17
2018-11-01T09:48:45.094Z,79.17
2018-11-01T09:49:50.599Z,79.46
2018-11-01T09:50:56.110Z,79.56
2018-11-01T09:52:01.625Z,79.46
2018-11-01T09:53:07.151Z,79.56
2018-11-01T09:54:12.649Z,79.56
2018-11-01T09:55:18.160Z,79.56
2018-11-01T09:56:23.721Z,79.36
2018-11-01T09:57:29.188Z,79.17
2018-11-01T09:58:34.692Z,78.89
2018-11-01T09:59:40.204Z,79.17
2018-11-01T10:00:45.716Z,79.56
2018-11-01T10:01:51.227Z,79.56
2018-11-01T10:02:56.736Z,79.56
2018-11-01T10:04:02.248Z,78.99
2018-11-01T10:05:07.760Z,78.89
2018-11-01T10:06:13.318Z,79.36
2018-11-01T10:07:18.788Z,78.60
2018-11-01T10:08:24.298Z,79.08
2018-11-01T10:09:29.809Z,79.17
2018-11-01T10:10:35.316Z,79.36
2018-11-01T10:11:40.829Z,79.56
2018-11-01T10:12:46.351Z,79.56
2018-11-01T10:13:51.855Z,78.51
2018-11-01T10:14:57.431Z,77.84
2018-11-01T10:16:02.994Z,78.51
2018-11-01T10:17:08.650Z,78.41
2018-11-01T10:18:14.243Z,78.13
2018-11-01T10:19:19.423Z,78.22
2018-11-01T10:20:24.927Z,78.22
2018-11-01T10:21:30.555Z,78.31
2018-11-01T10:22:35.997Z,78.83
2018-11-01T10:23:41.462Z,78.79
2018-11-01T10:24:46.978Z,79.17
2018-11-01T10:25:52.492Z,79.17
2018-11-01T10:26:58.002Z,78.99
2018-11-01T10:28:03.506Z,78.64
2018-11-01T10:29:09.019Z,78.93
2018-11-01T10:30:14.540Z,78.45
2018-11-01T10:31:20.051Z,78.41
2018-11-01T10:32:25.564Z,78.36
2018-11-01T10:33:31.064Z,77.65
2018-11-01T10:34:36.583Z,77.50
2018-11-01T10:35:42.091Z,77.69
2018-11-01T10:36:47.601Z,77.21
2018-11-01T10:37:53.122Z,77.21
2018-11-01T10:38:58.628Z,77.97
2018-11-01T10:40:04.140Z,77.97
2018-11-01T10:41:09.647Z,77.40
2018-11-01T10:42:15.163Z,77.59
2018-11-01T10:43:20.677Z,77.59
2018-11-01T10:44:26.194Z,78.07
2018-11-01T10:45:31.707Z,77.78
2018-11-01T10:46:37.255Z,76.64
2018-11-01T10:47:42.816Z,76.35
2018-11-01T10:48:48.230Z,76.45
2018-11-01T10:49:53.745Z,76.25
2018-11-01T10:50:59.255Z,77.30
2018-11-01T10:52:04.768Z,77.40
2018-11-01T10:53:10.278Z,77.59
2018-11-01T10:54:15.901Z,77.40
2018-11-01T10:55:21.316Z,78.26
2018-11-01T10:56:26.817Z,78.36
2018-11-01T10:57:32.332Z,79.02
2018-11-01T10:58:37.840Z,79.22
2018-11-01T10:59:43.356Z,79.41
2018-11-01T11:00:48.980Z,79.69
2018-11-01T11:01:54.377Z,80.17
2018-11-01T11:02:59.892Z,80.46
2018-11-01T11:04:05.405Z,79.41
2018-11-01T11:05:10.914Z,79.31
2018-11-01T11:06:16.426Z,78.93
2018-11-01T11:07:21.946Z,79.06
2018-11-01T11:08:27.446Z,79.41
2018-11-01T11:09:32.970Z,79.41
2018-11-01T11:10:38.480Z,79.22
2018-11-01T11:11:43.987Z,78.83
2018-11-01T11:12:49.496Z,78.93
2018-11-01T11:13:55.010Z,78.49
2018-11-01T11:15:00.524Z,78.16
2018-11-01T11:16:06.033Z,78.20
2018-11-01T11:17:11.546Z,78.58
2018-11-01T11:18:17.060Z,78.97
2018-11-01T11:19:22.585Z,78.78
2018-11-01T11:20:28.373Z,78.97
2018-11-01T11:21:33.596Z,78.78
2018-11-01T11:22:39.114Z,78.26
2018-11-01T11:23:44.620Z,77.92
2018-11-01T11:24:50.146Z,78.20
2018-11-01T11:25:55.645Z,78.58
2018-11-01T11:27:01.155Z,78.11
2018-11-01T11:28:06.677Z,78.30
2018-11-01T11:29:12.179Z,78.30
2018-11-01T11:30:17.806Z,78.20
2018-11-01T11:31:23.203Z,78.20
2018-11-01T11:32:28.721Z,78.11
2018-11-01T11:33:34.225Z,78.30
2018-11-01T11:34:39.756Z,78.30
2018-11-01T11:35:45.271Z,78.30
2018-11-01T11:36:50.778Z,78.01
2018-11-01T11:37:56.275Z,78.11
2018-11-01T11:39:01.835Z,78.39
2018-11-01T11:40:07.306Z,78.39
2018-11-01T11:41:12.824Z,78.20
2018-11-01T11:42:18.333Z,78.30
2018-11-01T11:43:23.838Z,78.49
2018-11-01T11:44:29.384Z,78.20
2018-11-01T11:45:35.024Z,78.20
2018-11-01T11:46:40.967Z,78.20
2018-11-01T11:47:46.483Z,78.20
2018-11-01T11:48:51.403Z,78.87
2018-11-01T11:49:56.923Z,79.35
2018-11-01T11:51:02.428Z,79.54
2018-11-01T11:52:08.160Z,79.16
2018-11-01T11:53:13.462Z,79.44
2018-11-01T11:54:18.963Z,79.25
2018-11-01T11:55:24.484Z,79.25
2018-11-01T11:56:30.004Z,79.35
2018-11-01T11:57:35.509Z,79.25
2018-11-01T11:58:41.024Z,78.78
2018-11-01T11:59:46.528Z,78.39
2018-11-01T12:00:52.040Z,78.30
2018-11-01T12:01:57.554Z,78.97
2018-11-01T12:03:03.066Z,79.16
2018-11-01T12:04:08.576Z,79.44
2018-11-01T12:05:14.153Z,80.11
2018-11-01T12:06:19.799Z,80.69
2018-11-01T12:07:25.127Z,80.88
2018-11-01T12:08:30.626Z,80.59
2018-11-01T12:09:36.138Z,80.40
2018-11-01T12:10:41.650Z,80.69
2018-11-01T12:11:47.162Z,80.88
2018-11-01T12:12:52.673Z,81.36
2018-11-01T12:13:58.246Z,80.69
2018-11-01T12:15:03.699Z,80.50
2018-11-01T12:16:09.212Z,80.21
2018-11-01T12:17:14.728Z,80.11
2018-11-01T12:18:20.240Z,80.21
2018-11-01T12:19:25.754Z,80.88
2018-11-01T12:20:31.262Z,80.79
2018-11-01T12:21:36.783Z,80.50
2018-11-01T12:22:42.299Z,80.50
2018-11-01T12:23:47.800Z,79.73
2018-11-01T12:24:53.322Z,80.11
2018-11-01T12:25:58.833Z,79.93
2018-11-01T12:27:04.339Z,79.77
2018-11-01T12:28:09.901Z,79.64
2018-11-01T12:29:15.367Z,80.11
2018-11-01T12:30:20.876Z,80.98
2018-11-01T12:31:26.394Z,80.40
2018-11-01T12:32:31.909Z,80.79
2018-11-01T12:33:37.411Z,80.79
2018-11-01T12:34:42.926Z,80.40
2018-11-01T12:35:48.451Z,80.59
2018-11-01T12:36:53.953Z,80.79
2018-11-01T12:37:59.466Z,80.50
2018-11-01T12:39:04.975Z,80.30
2018-11-01T12:40:10.491Z,80.21
2018-11-01T12:41:16.018Z,80.59
2018-11-01T12:42:21.528Z,80.30
2018-11-01T12:43:27.016Z,80.59
2018-11-01T12:44:32.544Z,80.69
2018-11-01T12:45:38.057Z,81.07
2018-11-01T12:46:43.566Z,80.69
2018-11-01T12:47:49.076Z,80.69
2018-11-01T12:48:54.592Z,80.59
2018-11-01T12:50:00.212Z,81.26
2018-11-01T12:51:05.611Z,81.55
2018-11-01T12:52:11.125Z,80.88
2018-11-01T12:53:16.642Z,80.79
2018-11-01T12:54:22.152Z,80.88
2018-11-01T12:55:27.675Z,80.69
2018-11-01T12:56:33.359Z,80.40
2018-11-01T12:57:38.691Z,80.59
2018-11-01T12:58:44.200Z,80.69
2018-11-01T12:59:49.712Z,80.50
2018-11-01T13:00:55.222Z,80.69
2018-11-01T13:02:00.740Z,80.88
2018-11-01T13:03:06.251Z,81.16
2018-11-01T13:04:11.767Z,81.07
2018-11-01T13:05:17.276Z,80.79
2018-11-01T13:06:22.785Z,80.50
2018-11-01T13:07:28.302Z,81.84
2018-11-01T13:08:33.825Z,81.74
2018-11-01T13:09:39.324Z,81.84
2018-11-01T13:10:44.977Z,81.84
2018-11-01T13:11:50.351Z,82.12
2018-11-01T13:12:55.866Z,81.88
2018-11-01T13:14:01.376Z,81.93
2018-11-01T13:15:06.885Z,81.93
2018-11-01T13:16:12.401Z,81.84
2018-11-01T13:17:17.922Z,81.93
2018-11-01T13:18:23.436Z,81.93
2018-11-01T13:19:28.957Z,82.31
2018-11-01T13:20:34.453Z,81.97
2018-11-01T13:21:39.963Z,81.84
2018-11-01T13:22:45.476Z,82.31
2018-11-01T13:23:50.988Z,82.31
2018-11-01T13:24:56.504Z,82.31
2018-11-01T13:26:02.016Z,82.79
2018-11-01T13:27:07.524Z,82.98
2018-11-01T13:28:13.041Z,83.17
2018-11-01T13:29:18.642Z,82.89
2018-11-01T13:30:24.076Z,83.27
2018-11-01T13:31:29.582Z,83.17
2018-11-01T13:32:35.105Z,83.56
2018-11-01T13:33:40.603Z,83.94
2018-11-01T13:34:46.154Z,83.84
2018-11-01T13:35:51.626Z,83.37
2018-11-01T13:36:57.141Z,83.27
2018-11-01T13:38:02.666Z,83.37
2018-11-01T13:39:08.161Z,83.08
2018-11-01T13:40:13.861Z,83.27
2018-11-01T13:41:19.231Z,83.27
2018-11-01T13:42:24.700Z,83.65
2018-11-01T13:43:30.213Z,83.65
2018-11-01T13:44:35.717Z,84.03
2018-11-01T13:45:41.247Z,84.03
2018-11-01T13:46:46.758Z,83.65
2018-11-01T13:47:52.325Z,83.46
2018-11-01T13:48:57.802Z,83.46
2018-11-01T13:50:03.289Z,83.27
2018-11-01T13:51:08.796Z,83.84
2018-11-01T13:52:14.311Z,83.46
2018-11-01T13:53:19.832Z,83.75
2018-11-01T13:54:25.388Z,83.46
2018-11-01T13:55:30.858Z,84.13
2018-11-01T13:56:36.442Z,83.94
2018-11-01T13:57:41.877Z,83.75
2018-11-01T13:58:47.386Z,84.32
2018-11-01T13:59:52.902Z,84.70
2018-11-01T14:00:58.409Z,84.52
2018-11-01T14:02:03.926Z,84.32
2018-11-01T14:03:09.434Z,84.23